»·PEaware :: WAT364 KSAN-KPSP

WAT364 :: KSAN-KPSP

FLIGHT INFORMATION

Flight Status: Arrived
Operator:
Walker Air Transport
More flights by this operator :: More flights under this callsign
Pilot: Chris P. (25553)
Aircraft: CIRRUS VISIONJET
(SF50)
More flights by this aircraft type
Origin: KSAN San Diego Intl-Lindbergh
United States
Destination: KPSP Palm Springs Intl
United States
More flights between these airports :: More routes between these airports
Route: BRDR7 JLI V460 HENOM V137 TRM
File this flight plan on PilotEdge
Remarks:
Altitude:
(Current/Filed)
11,000ft
Speed:
(Current/Filed)
240kts
Departed: 12-Oct-20 07:45 PM
Arrived: 12-Oct-20 08:24 PM
Distance/Time
Traveled:
74nm/0:39
Distance/Time
To Go:
Arrived

Flight Plot

Page will automatically refresh every two minutes.

Flight plan parsing failed; only flown route is shown


Map Options




Map Legend


Flown Route
Filed Route
Departure Airport
Arrival Airport
Navaid (VOR, NDB)
Fix

Horizontal Profiles

Position Reports

Time Latitude Longitude Heading Altitude Ground
Speed
12-Oct-20 19:26 32.733191 -117.176980 232 21ft 0kts
12-Oct-20 19:27 32.733191 -117.176980 232 21ft 0kts
12-Oct-20 19:28 32.733191 -117.176980 232 21ft 0kts
12-Oct-20 19:29 32.733191 -117.176980 232 21ft 0kts
12-Oct-20 19:30 32.733191 -117.176980 232 21ft 0kts
12-Oct-20 19:31 32.733191 -117.176980 232 21ft 0kts
12-Oct-20 19:32 32.733191 -117.176980 232 21ft 0kts
12-Oct-20 19:33 32.733191 -117.176980 232 21ft 0kts
12-Oct-20 19:34 32.733191 -117.176980 232 21ft 0kts
12-Oct-20 19:35 32.733191 -117.176980 232 21ft 0kts
12-Oct-20 19:36 32.733191 -117.176980 232 21ft 0kts
12-Oct-20 19:37 32.733176 -117.177000 227 21ft 0kts
12-Oct-20 19:39 32.732626 -117.176859 129 21ft 2kts
12-Oct-20 19:40 32.731293 -117.175725 151 21ft 8kts
12-Oct-20 19:41 32.731032 -117.175554 150 21ft 0kts
12-Oct-20 19:42 32.731032 -117.175554 150 21ft 0kts
12-Oct-20 19:43 32.731032 -117.175554 150 21ft 0kts
12-Oct-20 19:44 32.730426 -117.176751 284 21ft 38kts
12-Oct-20 19:45 32.739346 -117.217432 288 1325ft 156kts
12-Oct-20 19:46 32.755561 -117.277007 290 3061ft 229kts
12-Oct-20 19:47 32.736465 -117.335533 172 4387ft 237kts
12-Oct-20 19:48 32.698172 -117.280053 124 5749ft 214kts
12-Oct-20 19:49 32.661469 -117.232230 120 7071ft 190kts
12-Oct-20 19:50 32.627901 -117.185504 96 8316ft 167kts
12-Oct-20 19:51 32.617275 -117.133925 112 9542ft 159kts
12-Oct-20 19:52 32.607457 -117.084559 62 10495ft 178kts
12-Oct-20 19:53 32.612829 -117.021007 91 10988ft 222kts
12-Oct-20 19:54 32.614049 -116.942300 81 10988ft 252kts
12-Oct-20 19:54 32.621090 -116.871685 81 10986ft 261kts
12-Oct-20 19:56 32.639691 -116.776452 46 11007ft 255kts
12-Oct-20 19:56 32.692472 -116.747902 16 10999ft 254kts
12-Oct-20 19:58 32.770903 -116.719691 16 10987ft 252kts
12-Oct-20 19:58 32.826695 -116.699579 16 10980ft 251kts
12-Oct-20 19:59 32.893843 -116.675339 16 10979ft 249kts
12-Oct-20 20:00 32.959246 -116.651718 16 10980ft 243kts
12-Oct-20 20:01 33.022832 -116.628699 16 10978ft 237kts
12-Oct-20 20:02 33.085767 -116.605873 15 10972ft 234kts
12-Oct-20 20:03 33.144348 -116.574344 45 10963ft 238kts
12-Oct-20 20:04 33.184641 -116.510761 51 10941ft 241kts
12-Oct-20 20:05 33.223220 -116.445301 52 10944ft 240kts
12-Oct-20 20:06 33.260828 -116.381149 52 10926ft 228kts
12-Oct-20 20:07 33.296425 -116.320328 52 10925ft 218kts
12-Oct-20 20:08 33.329321 -116.264014 52 10925ft 198kts
12-Oct-20 20:09 33.360541 -116.210530 52 10927ft 197kts
12-Oct-20 20:10 33.392081 -116.156404 52 10926ft 198kts
12-Oct-20 20:11 33.424671 -116.104279 35 10719ft 196kts
12-Oct-20 20:12 33.477743 -116.105093 334 9545ft 201kts
12-Oct-20 20:13 33.529683 -116.134579 337 8191ft 205kts
12-Oct-20 20:14 33.586634 -116.155006 342 6622ft 219kts
12-Oct-20 20:15 33.640212 -116.185398 305 4881ft 228kts
12-Oct-20 20:16 33.658708 -116.251185 274 4310ft 189kts
12-Oct-20 20:17 33.665555 -116.308153 282 4388ft 166kts
12-Oct-20 20:18 33.676194 -116.362715 295 4185ft 167kts
12-Oct-20 20:19 33.709589 -116.403862 327 3518ft 186kts
12-Oct-20 20:20 33.754897 -116.440951 323 2301ft 204kts
12-Oct-20 20:21 33.797253 -116.479023 326 936ft 177kts
12-Oct-20 20:22 33.826791 -116.505245 329 432ft 73kts
12-Oct-20 20:23 33.831269 -116.509083 326 430ft 16kts
12-Oct-20 20:24 33.832876 -116.511934 201 430ft 0kts
12-Oct-20 20:25 33.832750 -116.511956 182 430ft 5kts
12-Oct-20 20:26 33.828362 -116.509252 180 430ft 16kts

Navigation Log

Ident Type
Flight plan parsing failed, navigation log unavailable